createdAt,value
2023-02-25T00:01:08.369Z,95790.28
2023-02-25T00:06:13.922Z,95791.00
2023-02-25T00:11:20.645Z,95798.22
2023-02-25T00:16:25.179Z,95791.31
2023-02-25T00:21:29.584Z,95799.66
2023-02-25T00:26:35.219Z,95786.47
2023-02-25T00:31:38.759Z,95790.97
2023-02-25T00:36:42.164Z,95793.72
2023-02-25T00:41:47.040Z,95794.91
2023-02-25T00:46:50.139Z,95793.25
2023-02-25T00:51:53.604Z,95799.53
2023-02-25T00:56:58.200Z,95795.13
2023-02-25T01:02:01.398Z,95793.59
2023-02-25T01:07:04.606Z,95803.69
2023-02-25T01:12:10.247Z,95803.09
2023-02-25T01:17:13.460Z,95802.03
2023-02-25T01:22:16.793Z,95805.34
2023-02-25T01:27:21.316Z,95811.03
2023-02-25T01:32:25.731Z,95815.34
2023-02-25T01:37:29.341Z,95814.16
2023-02-25T01:42:33.936Z,95823.53
2023-02-25T01:47:39.764Z,95817.63
2023-02-25T01:52:45.038Z,95825.31
2023-02-25T01:57:52.256Z,95826.03
2023-02-25T02:02:57.603Z,95826.19
2023-02-25T02:08:02.085Z,95837.47
2023-02-25T02:13:06.956Z,95837.34
2023-02-25T02:18:11.413Z,95846.84
2023-02-25T02:23:41.165Z,95840.53
2023-02-25T02:29:23.781Z,95834.59
2023-02-25T02:34:39.445Z,95830.06
2023-02-25T02:39:54.590Z,95830.91
2023-02-25T02:45:02.730Z,95833.50
2023-02-25T02:50:13.131Z,95828.97
2023-02-25T02:55:22.600Z,95835.06
2023-02-25T03:00:35.516Z,95837.47
2023-02-25T03:05:43.248Z,95838.53
2023-02-25T03:10:46.588Z,95840.31
2023-02-25T03:15:53.152Z,95840.78
2023-02-25T03:20:59.965Z,95825.66
2023-02-25T03:26:13.612Z,95843.97
2023-02-25T03:31:22.563Z,95844.34
2023-02-25T03:36:31.773Z,95843.53
2023-02-25T03:41:39.531Z,95847.44
2023-02-25T03:46:45.327Z,95857.78
2023-02-25T03:51:52.143Z,95874.28
2023-02-25T03:56:55.676Z,95873.13
2023-02-25T04:02:01.462Z,95873.59
2023-02-25T04:07:06.333Z,95890.22
2023-02-25T04:12:09.809Z,95889.16
2023-02-25T04:17:13.084Z,95893.22
2023-02-25T04:22:18.852Z,95897.63
2023-02-25T04:27:22.255Z,95906.75
2023-02-25T04:32:26.689Z,95901.41
2023-02-25T04:37:31.654Z,95906.75
2023-02-25T04:42:34.927Z,95901.66
2023-02-25T04:47:38.269Z,95909.69
2023-02-25T04:52:42.977Z,95913.53
2023-02-25T04:57:46.414Z,95911.19
2023-02-25T05:02:49.800Z,95909.75
2023-02-25T05:07:54.653Z,95907.44
2023-02-25T05:12:57.956Z,95904.88
2023-02-25T05:18:01.221Z,95915.81
2023-02-25T05:23:05.874Z,95916.06
2023-02-25T05:28:09.417Z,95904.72
2023-02-25T05:33:13.627Z,95903.63
2023-02-25T05:38:18.292Z,95910.59
2023-02-25T05:43:21.630Z,95917.72
2023-02-25T05:48:25.311Z,95915.16
2023-02-25T05:53:29.932Z,95915.50
2023-02-25T05:58:33.969Z,95925.19
2023-02-25T06:03:37.625Z,95952.47
2023-02-25T06:08:44.430Z,95951.00
2023-02-25T06:13:49.861Z,95950.75
2023-02-25T06:18:53.686Z,95965.97
2023-02-25T06:23:58.595Z,95962.59
2023-02-25T06:29:02.414Z,95978.63
2023-02-25T06:34:06.121Z,95980.09
2023-02-25T06:39:11.799Z,95981.31
2023-02-25T06:44:15.901Z,95973.28
2023-02-25T06:49:19.905Z,95985.22
2023-02-25T06:54:25.519Z,95986.56
2023-02-25T06:59:29.551Z,95999.91
2023-02-25T07:04:32.946Z,96006.66
2023-02-25T07:09:37.508Z,96012.22
2023-02-25T07:14:40.755Z,96010.81
2023-02-25T07:19:44.060Z,96013.88
2023-02-25T07:24:50.312Z,96021.88
2023-02-25T07:29:54.956Z,96030.03
2023-02-25T07:34:58.180Z,96038.97
2023-02-25T07:40:03.249Z,96028.81
2023-02-25T07:45:07.768Z,96032.28
2023-02-25T07:50:13.191Z,96027.75
2023-02-25T07:55:19.405Z,96026.75
2023-02-25T08:00:23.025Z,96020.53
2023-02-25T08:05:26.383Z,96034.81
2023-02-25T08:10:31.179Z,96027.78
2023-02-25T08:15:34.386Z,96026.38
2023-02-25T08:20:37.773Z,96029.72
2023-02-25T08:25:42.823Z,96025.31
2023-02-25T08:30:46.887Z,96030.38
2023-02-25T08:35:50.037Z,96026.97
2023-02-25T08:40:54.806Z,96036.56
2023-02-25T08:45:58.462Z,96038.50
2023-02-25T08:51:04.250Z,96071.06
2023-02-25T08:56:11.104Z,96077.59
2023-02-25T09:01:16.315Z,96098.38
2023-02-25T09:06:20.723Z,96105.91
2023-02-25T09:11:27.412Z,96121.88
2023-02-25T09:16:31.894Z,96110.63
2023-02-25T09:21:36.154Z,96120.09
2023-02-25T09:26:41.114Z,96117.41
2023-02-25T09:31:44.658Z,96106.41
2023-02-25T09:36:48.143Z,96113.56
2023-02-25T09:41:57.126Z,96109.25
2023-02-25T09:47:04.786Z,96123.78
2023-02-25T09:52:17.011Z,96117.69
2023-02-25T09:57:23.594Z,96121.88
2023-02-25T10:02:36.365Z,96123.38
2023-02-25T10:07:49.990Z,96132.28
2023-02-25T10:13:03.848Z,96137.13
2023-02-25T10:18:22.014Z,96130.34
2023-02-25T10:23:41.950Z,96139.63
2023-02-25T10:28:51.731Z,96150.75
2023-02-25T10:33:56.348Z,96147.75
2023-02-25T10:38:59.586Z,96158.97
2023-02-25T10:44:04.318Z,96164.56
2023-02-25T10:49:16.833Z,96162.97
2023-02-25T10:54:25.010Z,96165.88
2023-02-25T10:59:33.496Z,96195.69
2023-02-25T11:04:40.091Z,96176.28
2023-02-25T11:09:43.510Z,96183.91
2023-02-25T11:14:48.374Z,96187.25
2023-02-25T11:19:59.553Z,96192.94
2023-02-25T11:25:06.062Z,96195.69
2023-02-25T11:30:21.209Z,96192.88
2023-02-25T11:35:30.765Z,96210.88
2023-02-25T11:40:42.411Z,96220.06
2023-02-25T11:45:54.961Z,96233.00
2023-02-25T11:51:10.864Z,96237.84
2023-02-25T11:56:24.708Z,96223.16
2023-02-25T12:01:43.670Z,96198.25
2023-02-25T12:07:13.795Z,96196.88
2023-02-25T12:12:41.714Z,96197.00
2023-02-25T12:18:19.390Z,96191.13
2023-02-25T12:23:56.181Z,96187.38
2023-02-25T12:29:08.456Z,96189.53
2023-02-25T12:34:46.922Z,96184.78
2023-02-25T12:40:23.538Z,96198.50
2023-02-25T12:45:40.390Z,96210.44
2023-02-25T12:51:04.570Z,96208.34
2023-02-25T12:56:39.098Z,96203.84
2023-02-25T13:02:20.030Z,96204.47
2023-02-25T13:07:45.496Z,96207.63
2023-02-25T13:13:07.665Z,96219.53
2023-02-25T13:18:19.536Z,96209.25
2023-02-25T13:24:04.977Z,96213.13
2023-02-25T13:29:27.619Z,96229.47
2023-02-25T13:34:40.261Z,96218.97
2023-02-25T13:40:02.024Z,96224.72
2023-02-25T13:45:37.121Z,96229.56
2023-02-25T13:51:10.521Z,96238.06
2023-02-25T13:56:45.030Z,96248.25
2023-02-25T14:02:00.984Z,96245.00
2023-02-25T14:07:21.314Z,96264.63
2023-02-25T14:12:45.582Z,96278.69
2023-02-25T14:18:03.545Z,96286.94
2023-02-25T14:23:13.978Z,96290.06
2023-02-25T14:28:27.118Z,96292.38
2023-02-25T14:33:53.336Z,96309.53
2023-02-25T14:39:14.399Z,96316.31
2023-02-25T14:44:25.824Z,96322.38
2023-02-25T14:49:36.462Z,96335.75
2023-02-25T14:55:27.771Z,96340.91
2023-02-25T15:00:55.605Z,96354.53
2023-02-25T15:06:14.895Z,96357.75
2023-02-25T15:11:32.577Z,96356.56
2023-02-25T15:17:00.817Z,96368.66
2023-02-25T15:22:20.890Z,96397.44
2023-02-25T15:27:51.559Z,96412.44
2023-02-25T15:33:08.730Z,96427.25
2023-02-25T15:38:21.016Z,96432.34
2023-02-25T15:43:45.994Z,96426.72
2023-02-25T15:49:05.931Z,96439.16
2023-02-25T15:54:12.220Z,96432.69
2023-02-25T15:59:43.939Z,96446.69
2023-02-25T16:04:50.316Z,96459.91
2023-02-25T16:09:59.840Z,96462.75
2023-02-25T16:15:04.032Z,96485.41
2023-02-25T16:20:17.705Z,96486.09
2023-02-25T16:25:30.816Z,96493.22
2023-02-25T16:30:41.603Z,96503.41
2023-02-25T16:35:55.415Z,96520.53
2023-02-25T16:41:05.061Z,96528.25
2023-02-25T16:46:12.919Z,96536.25
2023-02-25T16:51:24.309Z,96545.66
2023-02-25T16:56:32.202Z,96538.81
2023-02-25T17:01:37.893Z,96549.88
2023-02-25T17:06:41.612Z,96555.00
2023-02-25T17:11:54.968Z,96560.97
2023-02-25T17:17:00.268Z,96575.28
2023-02-25T17:22:05.425Z,96584.59
2023-02-25T17:27:12.836Z,96620.25
2023-02-25T17:32:25.121Z,96621.41
2023-02-25T17:37:30.852Z,96624.25
2023-02-25T17:42:39.279Z,96624.94
2023-02-25T17:47:45.423Z,96622.25
2023-02-25T17:52:49.989Z,96631.72
2023-02-25T17:57:59.792Z,96649.00
2023-02-25T18:03:18.698Z,96653.47
2023-02-25T18:08:29.723Z,96644.06
2023-02-25T18:13:37.278Z,96651.00
2023-02-25T18:18:41.824Z,96665.03
2023-02-25T18:23:46.268Z,96661.09
2023-02-25T18:28:51.433Z,96662.91
2023-02-25T18:33:55.135Z,96653.38
2023-02-25T18:39:04.622Z,96663.00
2023-02-25T18:44:14.122Z,96670.97
2023-02-25T18:49:17.629Z,96672.16
2023-02-25T18:54:22.172Z,96675.81
2023-02-25T18:59:27.054Z,96681.91
2023-02-25T19:04:30.768Z,96684.53
2023-02-25T19:09:34.516Z,96688.22
2023-02-25T19:14:40.603Z,96684.91
2023-02-25T19:19:47.100Z,96690.97
2023-02-25T19:24:51.249Z,96695.63
2023-02-25T19:29:58.329Z,96710.72
2023-02-25T19:35:04.501Z,96706.94
2023-02-25T19:40:11.437Z,96713.13
2023-02-25T19:45:19.086Z,96727.81
2023-02-25T19:50:24.922Z,96735.75
2023-02-25T19:55:28.917Z,96743.00
2023-02-25T20:00:34.301Z,96752.66
2023-02-25T20:05:37.793Z,96758.47
2023-02-25T20:10:44.014Z,96760.88
2023-02-25T20:15:48.696Z,96760.97
2023-02-25T20:20:51.943Z,96768.78
2023-02-25T20:26:04.096Z,96767.41
2023-02-25T20:31:11.109Z,96766.72
2023-02-25T20:36:22.436Z,96773.06
2023-02-25T20:41:26.270Z,96779.19
2023-02-25T20:46:31.481Z,96782.03
2023-02-25T20:51:35.829Z,96790.66
2023-02-25T20:56:39.885Z,96790.06
2023-02-25T21:01:45.533Z,96794.88
2023-02-25T21:06:49.832Z,96803.44
2023-02-25T21:11:53.357Z,96800.69
2023-02-25T21:16:59.031Z,96807.78
2023-02-25T21:22:02.776Z,96814.25
2023-02-25T21:27:06.413Z,96820.16
2023-02-25T21:32:11.902Z,96825.41
2023-02-25T21:37:15.782Z,96839.84
2023-02-25T21:42:19.626Z,96851.84
2023-02-25T21:47:25.033Z,96860.28
2023-02-25T21:52:28.974Z,96857.72
2023-02-25T21:57:33.401Z,96864.16
2023-02-25T22:02:38.996Z,96861.16
2023-02-25T22:07:42.981Z,96865.47
2023-02-25T22:12:46.896Z,96857.00
2023-02-25T22:17:52.578Z,96870.50
2023-02-25T22:22:58.257Z,96867.47
2023-02-25T22:28:04.376Z,96860.75
2023-02-25T22:33:09.936Z,96872.41
2023-02-25T22:38:13.164Z,96869.84
2023-02-25T22:43:16.432Z,96865.94
2023-02-25T22:48:21.453Z,96868.06
2023-02-25T22:53:24.951Z,96872.78
2023-02-25T22:58:28.124Z,96877.63
2023-02-25T23:03:32.970Z,96893.47
2023-02-25T23:08:36.738Z,96892.03
2023-02-25T23:13:46.148Z,96889.38
2023-02-25T23:18:52.674Z,96889.38
2023-02-25T23:23:58.252Z,96893.53
2023-02-25T23:29:03.702Z,96889.94
2023-02-25T23:34:10.085Z,96907.50
2023-02-25T23:39:15.243Z,96915.91
2023-02-25T23:44:19.185Z,96901.63
2023-02-25T23:49:24.080Z,96892.56
2023-02-25T23:54:27.420Z,96903.19
2023-02-25T23:59:30.624Z,96904.09
